GMTN/TTU METAR and TAF weather

Enter ICAO airport designator
Station Type Date Time Source
GMTN METAR 2024/06/14 03:00 UTC NOAA

GMTN 140300Z 08006KT 8000 BKN008 20/18 Q1015 NOSIG


Station Type Date Time Source
GMTN Decoded METAR 2024/06/14 03:00 UTC NOAA

Tetuan / Sania Ramel, Morocco (GMTN) 35-35N 005-20W 10M
Jun 13, 2024 - 11:00 PM EDT / 2024.06.14 0300 UTC
Wind: from the E (080 degrees) at 7 MPH (6 KT):0
Visibility: 4 mile(s):0
Sky conditions: mostly cloudy
Temperature: 68 F (20 C)
Dew Point: 64 F (18 C)
Relative Humidity: 88%
Pressure (altimeter): 29.97 in. Hg (1015 hPa)
ob: GMTN 140300Z 08006KT 8000 BKN008 20/18 Q1015 NOSIG
cycle: 3

Station Type Date Time Source
GMTN TAF 2021/07/02 12:21 UTC NOAA